Time;durP1;ratioP1;P1;durP2;ratioP2;P2;SDS_P1;SDS_P2;PMS_P1;PMS_P2;Temp;Humidity;BMP_temperature;BMP_pressure;BME280_temperature;BME280_humidity;BME280_pressure;Samples;Min_cycle;Max_cycle;Signal;HPM_P1;HPM_P2
2023/04/13 00:00:20;;;;;;;0.90;0.30;;;7.40;81.10;;;;;;5155017;27;20386;-69
2023/04/13 00:02:52;;;;;;;0.50;0.30;;;7.40;81.10;;;;;;5154376;27;20042;-70
2023/04/13 00:05:18;;;;;;;1.25;0.50;;;7.30;81.20;;;;;;5152810;27;20409;-70
2023/04/13 00:07:44;;;;;;;0.80;0.40;;;7.30;81.20;;;;;;5154341;27;20046;-70
2023/04/13 00:10:10;;;;;;;1.02;0.55;;;7.30;81.30;;;;;;5154321;27;20045;-69
2023/04/13 00:12:37;;;;;;;0.40;0.40;;;7.20;81.30;;;;;;5135446;27;20038;-69
2023/04/13 00:15:04;;;;;;;0.80;0.43;;;7.20;81.40;;;;;;5154043;27;20038;-69
2023/04/13 00:17:32;;;;;;;0.93;0.60;;;7.30;81.50;;;;;;5136059;27;20474;-69
2023/04/13 00:19:58;;;;;;;0.60;0.47;;;7.20;81.50;;;;;;5135264;27;20034;-70
2023/04/13 00:22:25;;;;;;;1.30;0.52;;;7.20;81.50;;;;;;5135580;27;20058;-69
2023/04/13 00:24:54;;;;;;;1.88;0.50;;;7.20;81.60;;;;;;5154263;27;20066;-69
2023/04/13 00:27:20;;;;;;;1.95;0.40;;;7.20;81.50;;;;;;5154198;27;20401;-69
2023/04/13 00:29:46;;;;;;;1.00;0.50;;;7.20;81.50;;;;;;5135570;27;20517;-69
2023/04/13 00:32:12;;;;;;;1.60;0.60;;;7.20;81.40;;;;;;5153729;27;20035;-70
2023/04/13 00:34:37;;;;;;;0.40;0.40;;;7.20;81.40;;;;;;5153587;27;20038;-69
2023/04/13 00:37:05;;;;;;;1.70;0.60;;;7.30;81.50;;;;;;5153669;27;20074;-69
2023/04/13 00:39:31;;;;;;;0.80;0.50;;;7.30;81.50;;;;;;5154026;27;20423;-69
2023/04/13 00:42:00;;;;;;;0.30;0.30;;;7.20;81.50;;;;;;5153489;27;20073;-69
2023/04/13 00:44:27;;;;;;;0.88;0.60;;;7.30;81.60;;;;;;5153702;27;20043;-69
2023/04/13 00:46:53;;;;;;;0.50;0.47;;;7.30;81.70;;;;;;5153522;27;20068;-70
2023/04/13 00:49:21;;;;;;;0.85;0.63;;;7.30;81.70;;;;;;5153887;27;20545;-69
2023/04/13 00:51:47;;;;;;;1.55;0.40;;;7.20;81.70;;;;;;5153651;27;20126;-69
2023/04/13 00:54:14;;;;;;;0.50;0.50;;;7.20;81.80;;;;;;5154028;27;20039;-70
2023/04/13 00:56:41;;;;;;;0.30;0.30;;;7.20;81.80;;;;;;5153711;27;20035;-69
2023/04/13 00:59:09;;;;;;;1.45;0.40;;;7.20;81.90;;;;;;5155935;27;20038;-70
2023/04/13 01:01:44;;;;;;;0.52;0.50;;;7.20;82.00;;;;;;5156976;27;20050;-70
2023/04/13 01:04:12;;;;;;;1.25;0.50;;;7.20;82.10;;;;;;5156961;27;20047;-69
2023/04/13 01:06:43;;;;;;;1.77;0.70;;;7.10;82.20;;;;;;5157311;27;20083;-69
2023/04/13 01:09:15;;;;;;;1.33;0.57;;;7.10;82.40;;;;;;5122474;27;20042;-69
2023/04/13 01:11:55;;;;;;;1.77;0.73;;;7.00;82.40;;;;;;5156867;27;20050;-69
2023/04/13 01:14:32;;;;;;;1.02;0.65;;;7.00;82.60;;;;;;5156788;27;20076;-69
2023/04/13 01:17:02;;;;;;;0.45;0.43;;;7.10;82.80;;;;;;5138565;27;20494;-69
2023/04/13 01:19:51;;;;;;;0.73;0.50;;;7.00;82.80;;;;;;5156670;27;20051;-69
2023/04/13 01:22:21;;;;;;;0.70;0.35;;;7.00;82.90;;;;;;5139578;27;20046;-69
2023/04/13 01:25:16;;;;;;;1.52;0.60;;;7.00;83.00;;;;;;5156688;27;20054;-69
2023/04/13 01:28:00;;;;;;;0.45;0.43;;;7.00;83.20;;;;;;5156602;27;20050;-69
2023/04/13 01:30:27;;;;;;;1.75;0.60;;;7.00;83.30;;;;;;5156617;27;20047;-69
2023/04/13 01:32:54;;;;;;;0.95;0.52;;;7.00;83.30;;;;;;5156517;27;20039;-69
2023/04/13 01:35:21;;;;;;;0.52;0.40;;;7.00;83.40;;;;;;5156812;27;20034;-69
2023/04/13 01:37:49;;;;;;;0.40;0.40;;;7.00;83.40;;;;;;5156809;27;20035;-69
2023/04/13 01:40:15;;;;;;;1.27;0.50;;;7.10;83.60;;;;;;5156808;27;20038;-69
2023/04/13 01:42:41;;;;;;;0.45;0.40;;;7.00;83.50;;;;;;5156969;27;20589;-69
2023/04/13 01:45:13;;;;;;;1.65;0.50;;;7.10;83.70;;;;;;5156740;27;20047;-69
2023/04/13 01:47:48;;;;;;;1.13;0.55;;;7.10;83.80;;;;;;5156296;27;20496;-70
2023/04/13 01:50:25;;;;;;;2.80;0.60;;;7.00;83.80;;;;;;5137754;27;20405;-70
2023/04/13 01:52:54;;;;;;;1.20;0.40;;;7.10;83.80;;;;;;5137854;27;20042;-69
2023/04/13 01:55:22;;;;;;;1.10;0.40;;;7.10;83.80;;;;;;5138537;27;20066;-69
2023/04/13 01:57:50;;;;;;;1.35;0.50;;;7.10;83.90;;;;;;5156468;27;20078;-70
2023/04/13 02:00:17;;;;;;;0.65;0.47;;;7.10;83.90;;;;;;5138136;27;20152;-70
2023/04/13 02:02:43;;;;;;;1.10;0.40;;;7.10;83.90;;;;;;5156130;27;20047;-69
2023/04/13 02:05:10;;;;;;;0.60;0.50;;;7.20;84.10;;;;;;5156632;27;20042;-69
2023/04/13 02:07:39;;;;;;;0.40;0.40;;;7.20;84.10;;;;;;5137336;27;20074;-70
2023/04/13 02:10:05;;;;;;;0.95;0.50;;;7.20;84.20;;;;;;5155836;27;20092;-70
2023/04/13 02:12:33;;;;;;;1.35;0.47;;;7.20;84.20;;;;;;5155901;27;20039;-70
2023/04/13 02:15:00;;;;;;;0.82;0.50;;;7.20;84.30;;;;;;5156023;27;20043;-69
2023/04/13 02:17:28;;;;;;;0.73;0.50;;;7.20;84.30;;;;;;5137610;27;20042;-69
2023/04/13 02:19:56;;;;;;;0.40;0.40;;;7.20;84.50;;;;;;5155707;27;20478;-70
2023/04/13 02:22:22;;;;;;;2.28;0.52;;;7.10;84.50;;;;;;5155704;27;20042;-70
2023/04/13 02:24:49;;;;;;;1.20;0.50;;;7.20;84.70;;;;;;5155839;27;20049;-70
2023/04/13 02:27:16;;;;;;;1.02;0.47;;;7.30;84.80;;;;;;5155605;27;20477;-70
2023/04/13 02:29:42;;;;;;;1.38;0.30;;;7.20;84.80;;;;;;5155638;27;20435;-69
2023/04/13 02:32:07;;;;;;;0.38;0.38;;;7.20;84.80;;;;;;5155689;27;20077;-70
2023/04/13 02:34:33;;;;;;;1.15;0.50;;;7.30;84.90;;;;;;5155879;27;20069;-70
2023/04/13 02:36:59;;;;;;;0.75;0.60;;;7.20;85.00;;;;;;5155592;27;20036;-70
2023/04/13 02:39:25;;;;;;;1.40;0.38;;;7.30;85.00;;;;;;5155601;27;20042;-70
2023/04/13 02:41:51;;;;;;;0.50;0.30;;;7.30;85.10;;;;;;5155633;27;20080;-70
2023/04/13 02:44:16;;;;;;;0.95;0.60;;;7.30;85.10;;;;;;5136976;27;20037;-70
2023/04/13 02:46:42;;;;;;;1.15;0.40;;;7.30;85.10;;;;;;5155432;27;20034;-69
2023/04/13 02:49:08;;;;;;;1.05;0.40;;;7.30;85.10;;;;;;5136965;27;20100;-69
2023/04/13 02:51:34;;;;;;;0.40;0.40;;;7.40;85.20;;;;;;5155155;27;20034;-69
2023/04/13 02:54:01;;;;;;;1.15;0.60;;;7.30;85.30;;;;;;5155157;27;20035;-69
2023/04/13 02:56:27;;;;;;;0.90;0.50;;;7.20;85.30;;;;;;5155133;27;20474;-69
2023/04/13 02:58:53;;;;;;;1.40;0.40;;;7.30;85.40;;;;;;5155245;27;20118;-70
2023/04/13 03:01:19;;;;;;;1.42;0.60;;;7.30;85.50;;;;;;5155065;27;20062;-69
2023/04/13 03:03:44;;;;;;;1.73;0.40;;;7.20;85.40;;;;;;5155002;27;20138;-70
2023/04/13 03:06:10;;;;;;;1.45;0.60;;;7.30;85.60;;;;;;5155440;27;20049;-70
2023/04/13 03:08:36;;;;;;;0.95;0.50;;;7.20;85.60;;;;;;5136817;27;20038;-70
2023/04/13 03:11:02;;;;;;;0.22;0.22;;;7.20;85.60;;;;;;5154916;27;20038;-70
2023/04/13 03:13:28;;;;;;;0.68;0.50;;;7.10;85.70;;;;;;5155446;27;20458;-70
2023/04/13 03:15:53;;;;;;;0.65;0.40;;;7.10;85.90;;;;;;5155430;27;20049;-70
2023/04/13 03:18:19;;;;;;;0.30;0.30;;;7.10;86.00;;;;;;5155249;27;20039;-69
2023/04/13 03:20:45;;;;;;;0.50;0.47;;;7.10;86.10;;;;;;5154435;27;20428;-70
2023/04/13 03:23:11;;;;;;;0.47;0.38;;;7.00;86.10;;;;;;5136523;27;20050;-70
2023/04/13 03:25:36;;;;;;;0.40;0.30;;;7.00;86.10;;;;;;5154700;27;20041;-70
2023/04/13 03:28:02;;;;;;;0.30;0.30;;;7.00;86.30;;;;;;5136321;27;20084;-69
2023/04/13 03:30:28;;;;;;;0.63;0.45;;;6.90;86.20;;;;;;5154712;27;20046;-70
2023/04/13 03:32:54;;;;;;;1.33;0.35;;;6.90;86.30;;;;;;5135845;27;20458;-70
2023/04/13 03:35:19;;;;;;;0.85;0.43;;;6.80;86.30;;;;;;5154776;27;20462;-70
2023/04/13 03:37:45;;;;;;;0.40;0.30;;;6.80;86.40;;;;;;5154686;27;21289;-70
2023/04/13 03:40:11;;;;;;;0.55;0.40;;;6.80;86.50;;;;;;5154621;27;20046;-70
2023/04/13 03:42:37;;;;;;;1.58;0.32;;;6.70;86.50;;;;;;5154554;27;20512;-70
2023/04/13 03:45:04;;;;;;;0.52;0.38;;;6.80;86.50;;;;;;5136048;27;20130;-70
2023/04/13 03:47:30;;;;;;;0.28;0.20;;;6.70;86.60;;;;;;5135891;27;20053;-70
2023/04/13 03:49:56;;;;;;;0.30;0.30;;;6.70;86.80;;;;;;5154525;27;20034;-70
2023/04/13 03:52:21;;;;;;;0.32;0.32;;;6.70;86.80;;;;;;5135856;27;20043;-70
2023/04/13 03:54:47;;;;;;;0.77;0.45;;;6.70;86.70;;;;;;5154280;27;20047;-70
2023/04/13 03:57:12;;;;;;;1.30;0.38;;;6.60;86.60;;;;;;5135781;27;20045;-70
2023/04/13 03:59:38;;;;;;;0.35;0.35;;;6.60;86.70;;;;;;5154274;27;20035;-70
2023/04/13 04:02:03;;;;;;;0.32;0.32;;;6.60;86.70;;;;;;5154910;27;20070;-70
2023/04/13 04:04:29;;;;;;;0.38;0.35;;;6.60;86.70;;;;;;5154458;27;20569;-70
2023/04/13 04:06:56;;;;;;;0.82;0.40;;;6.60;86.70;;;;;;5154767;27;20133;-70
2023/04/13 04:09:23;;;;;;;1.05;0.30;;;6.60;86.80;;;;;;5154747;27;20074;-70
2023/04/13 04:11:49;;;;;;;1.25;0.50;;;6.60;86.70;;;;;;5154238;27;20043;-70
2023/04/13 04:14:14;;;;;;;0.70;0.50;;;6.60;86.80;;;;;;5154767;27;20374;-70
2023/04/13 04:16:40;;;;;;;0.20;0.20;;;6.60;86.70;;;;;;5154734;27;20062;-70
2023/04/13 04:19:06;;;;;;;0.75;0.30;;;6.60;86.70;;;;;;5154589;27;20106;-70
2023/04/13 04:21:33;;;;;;;0.20;0.20;;;6.60;86.70;;;;;;5118435;27;20374;-69
2023/04/13 04:24:00;;;;;;;0.30;0.30;;;6.60;86.60;;;;;;5154083;27;20057;-69
2023/04/13 04:26:27;;;;;;;0.30;0.30;;;6.50;86.60;;;;;;5154007;27;20074;-70
2023/04/13 04:28:52;;;;;;;0.77;0.40;;;6.60;86.70;;;;;;5135854;27;20067;-70
2023/04/13 04:31:18;;;;;;;0.40;0.30;;;6.60;86.60;;;;;;5154363;27;20121;-70
2023/04/13 04:33:43;;;;;;;0.75;0.60;;;6.60;86.50;;;;;;5134428;27;20042;-70
2023/04/13 04:36:12;;;;;;;0.40;0.40;;;6.60;86.50;;;;;;5154317;27;20034;-70
2023/04/13 04:38:39;;;;;;;0.70;0.45;;;6.70;86.40;;;;;;5154244;27;20048;-70
2023/04/13 04:41:07;;;;;;;0.68;0.40;;;6.70;86.40;;;;;;5135362;27;20050;-70
2023/04/13 04:43:34;;;;;;;0.75;0.47;;;6.60;86.40;;;;;;5153954;27;20062;-70
2023/04/13 04:46:03;;;;;;;0.60;0.40;;;6.60;86.40;;;;;;5154321;27;20073;-70
2023/04/13 04:48:30;;;;;;;0.98;0.35;;;6.60;86.50;;;;;;5153654;27;20117;-70
2023/04/13 04:50:56;;;;;;;1.00;0.50;;;6.60;86.50;;;;;;5153728;27;20090;-70
2023/04/13 04:53:22;;;;;;;1.00;0.47;;;6.50;86.50;;;;;;5154049;27;20466;-70
2023/04/13 04:55:49;;;;;;;0.75;0.68;;;6.60;86.70;;;;;;5154218;27;20077;-70
2023/04/13 04:58:15;;;;;;;1.05;0.47;;;6.60;86.70;;;;;;5153776;27;20521;-70
2023/04/13 05:00:41;;;;;;;0.80;0.52;;;6.60;86.60;;;;;;5153559;27;20447;-70
2023/04/13 05:03:07;;;;;;;1.90;1.05;;;6.70;86.60;;;;;;5153763;27;20087;-70
2023/04/13 05:05:32;;;;;;;1.38;0.90;;;6.70;86.60;;;;;;5153712;27;20035;-70
2023/04/13 05:07:59;;;;;;;1.50;1.00;;;6.70;86.50;;;;;;5153582;27;20035;-70
2023/04/13 05:10:27;;;;;;;0.70;0.70;;;6.70;86.50;;;;;;5154087;27;20047;-71
2023/04/13 05:12:53;;;;;;;2.03;0.70;;;6.80;86.50;;;;;;5153430;27;20167;-70
2023/04/13 05:15:18;;;;;;;1.10;0.90;;;6.80;86.50;;;;;;5134897;27;20087;-70
2023/04/13 05:17:46;;;;;;;1.25;0.85;;;6.80;86.40;;;;;;5153759;27;20550;-70
2023/04/13 05:20:13;;;;;;;1.02;0.73;;;6.80;86.40;;;;;;5153299;27;20043;-70
2023/04/13 05:22:39;;;;;;;2.15;0.70;;;6.80;86.50;;;;;;5135173;27;20066;-71
2023/04/13 05:25:05;;;;;;;1.92;0.80;;;6.80;86.50;;;;;;5153903;27;20050;-70
2023/04/13 05:27:31;;;;;;;0.52;0.52;;;6.80;86.50;;;;;;5153261;27;20038;-70
2023/04/13 05:29:57;;;;;;;2.50;1.00;;;6.80;86.50;;;;;;5153589;27;20042;-70
2023/04/13 05:32:23;;;;;;;2.05;0.90;;;6.80;86.60;;;;;;5153171;27;20107;-70
2023/04/13 05:34:50;;;;;;;2.20;1.17;;;6.80;86.70;;;;;;5153117;27;20038;-70
2023/04/13 05:37:15;;;;;;;1.08;0.80;;;6.80;86.70;;;;;;5153556;27;20047;-70
2023/04/13 05:39:41;;;;;;;1.33;1.08;;;6.90;86.70;;;;;;5153570;27;20526;-70
2023/04/13 05:42:07;;;;;;;2.80;1.30;;;7.00;86.70;;;;;;5134716;27;20043;-70
2023/04/13 05:44:32;;;;;;;1.58;0.98;;;7.00;86.60;;;;;;5154914;27;20043;-70
2023/04/13 05:46:58;;;;;;;1.80;0.95;;;7.10;86.60;;;;;;5138000;27;20078;-70
2023/04/13 05:49:24;;;;;;;1.60;1.05;;;7.00;86.50;;;;;;5156654;27;20069;-70
2023/04/13 05:51:53;;;;;;;1.48;1.00;;;7.10;86.50;;;;;;5156776;27;20070;-70
2023/04/13 05:54:19;;;;;;;2.08;1.00;;;7.10;86.50;;;;;;5121280;27;20035;-70
2023/04/13 05:56:46;;;;;;;3.53;1.30;;;7.20;86.50;;;;;;5138123;27;20035;-70
2023/04/13 05:59:12;;;;;;;1.67;1.13;;;7.20;86.40;;;;;;5156575;27;20050;-69
2023/04/13 06:01:37;;;;;;;3.25;1.23;;;7.30;86.30;;;;;;5156485;27;20039;-70
2023/04/13 06:04:04;;;;;;;2.67;1.20;;;7.30;86.20;;;;;;5156307;27;20107;-69
2023/04/13 06:06:30;;;;;;;2.00;1.05;;;7.40;86.20;;;;;;5156359;27;20123;-70
2023/04/13 06:08:55;;;;;;;1.95;1.00;;;7.40;86.10;;;;;;5156213;27;20086;-70
2023/04/13 06:11:23;;;;;;;1.85;1.10;;;7.50;86.00;;;;;;5137849;27;20134;-70
2023/04/13 06:13:49;;;;;;;2.33;1.02;;;7.40;85.90;;;;;;5137507;27;20497;-70
2023/04/13 06:16:14;;;;;;;1.90;1.33;;;7.50;86.00;;;;;;5137776;27;20030;-71
2023/04/13 06:18:40;;;;;;;2.45;1.35;;;7.50;86.00;;;;;;5137156;27;20047;-70
2023/04/13 06:21:06;;;;;;;2.47;1.45;;;7.50;86.00;;;;;;5155961;27;20030;-70
2023/04/13 06:23:31;;;;;;;2.88;1.27;;;7.50;86.20;;;;;;5156086;27;20165;-70
2023/04/13 06:25:57;;;;;;;2.92;1.30;;;7.50;86.20;;;;;;5137132;27;20047;-70
2023/04/13 06:28:27;;;;;;;2.17;1.30;;;7.50;86.20;;;;;;5155913;27;20141;-71
2023/04/13 06:30:54;;;;;;;2.72;1.30;;;7.50;86.30;;;;;;5155902;27;20047;-70
2023/04/13 06:33:21;;;;;;;2.40;1.40;;;7.60;87.00;;;;;;5156007;27;20039;-69
2023/04/13 06:35:48;;;;;;;3.60;1.67;;;7.50;86.40;;;;;;5155798;27;20053;-69
2023/04/13 06:38:13;;;;;;;4.15;1.83;;;7.50;86.40;;;;;;5155654;27;20070;-70
2023/04/13 06:40:39;;;;;;;2.60;1.50;;;7.50;86.40;;;;;;5137400;27;20130;-70
2023/04/13 06:43:04;;;;;;;2.33;1.60;;;7.50;86.50;;;;;;5137212;27;20051;-70
2023/04/13 06:45:32;;;;;;;3.33;1.50;;;7.40;86.50;;;;;;5155603;27;20038;-70
2023/04/13 06:47:59;;;;;;;2.70;1.42;;;7.40;86.70;;;;;;5155518;27;20043;-70
2023/04/13 06:50:25;;;;;;;2.20;1.10;;;7.40;86.80;;;;;;5137242;27;20046;-70
2023/04/13 06:52:50;;;;;;;1.77;1.30;;;7.40;86.80;;;;;;5136813;27;20054;-70
2023/04/13 06:55:16;;;;;;;1.83;1.10;;;7.40;86.90;;;;;;5136185;27;20074;-70
2023/04/13 06:57:43;;;;;;;1.42;1.20;;;7.40;86.90;;;;;;5136933;27;20035;-73
2023/04/13 07:00:13;;;;;;;2.25;1.42;;;7.40;87.00;;;;;;5155880;27;20490;-75
2023/04/13 07:02:39;;;;;;;1.55;0.98;;;7.40;87.10;;;;;;5155888;27;20047;-74
2023/04/13 07:05:06;;;;;;;1.35;0.88;;;7.40;87.10;;;;;;5155402;27;20054;-74
2023/04/13 07:07:35;;;;;;;0.80;0.70;;;7.30;87.10;;;;;;5102761;27;20482;-75
2023/04/13 07:10:03;;;;;;;1.02;0.75;;;7.30;87.20;;;;;;5137711;27;20054;-73
2023/04/13 07:12:29;;;;;;;1.92;0.90;;;7.30;87.40;;;;;;5120424;27;20520;-73
2023/04/13 07:14:55;;;;;;;1.52;0.50;;;7.30;87.50;;;;;;5137249;27;20066;-73
2023/04/13 07:17:20;;;;;;;1.73;0.70;;;7.30;87.50;;;;;;5136725;27;20043;-73
2023/04/13 07:19:48;;;;;;;1.42;0.65;;;7.30;87.60;;;;;;5137309;27;20054;-73
2023/04/13 07:22:14;;;;;;;1.38;0.73;;;7.30;87.50;;;;;;5119672;27;20101;-74
2023/04/13 07:24:40;;;;;;;1.10;0.60;;;7.40;87.50;;;;;;5119602;27;20034;-73
2023/04/13 07:27:06;;;;;;;1.13;0.68;;;7.30;87.40;;;;;;5119434;27;20042;-73
2023/04/13 07:29:32;;;;;;;0.80;0.57;;;7.40;87.40;;;;;;5102372;27;20059;-72
2023/04/13 07:32:01;;;;;;;1.75;0.80;;;7.30;87.40;;;;;;5119465;27;20118;-73
2023/04/13 07:34:27;;;;;;;1.00;0.88;;;7.30;87.60;;;;;;5136390;27;20123;-73
2023/04/13 07:36:53;;;;;;;0.93;0.70;;;7.40;87.70;;;;;;5136395;27;20035;-73
2023/04/13 07:39:19;;;;;;;2.33;0.70;;;7.50;88.30;;;;;;5136380;27;20099;-74
2023/04/13 07:41:45;;;;;;;1.52;0.80;;;7.60;87.50;;;;;;5154714;27;20095;-73
2023/04/13 07:44:11;;;;;;;0.88;0.68;;;7.70;87.40;;;;;;5136053;27;20050;-72
2023/04/13 07:46:37;;;;;;;1.27;0.80;;;7.70;87.20;;;;;;5154720;27;20043;-73
2023/04/13 07:49:03;;;;;;;1.83;0.88;;;7.80;87.10;;;;;;5136110;27;20078;-73
2023/04/13 07:51:31;;;;;;;2.00;0.73;;;7.80;86.90;;;;;;5136047;27;20081;-71
2023/04/13 07:53:56;;;;;;;1.83;0.90;;;7.90;86.90;;;;;;5154620;27;20043;-72
2023/04/13 07:56:22;;;;;;;1.35;0.85;;;8.00;87.00;;;;;;5154605;27;20125;-72
2023/04/13 07:58:48;;;;;;;0.73;0.65;;;8.00;87.00;;;;;;5154984;27;20030;-73
2023/04/13 08:01:13;;;;;;;1.92;1.00;;;8.10;86.80;;;;;;5136238;27;20079;-72
2023/04/13 08:03:39;;;;;;;2.05;0.95;;;8.30;86.80;;;;;;5136420;27;20042;-72
2023/04/13 08:06:07;;;;;;;1.92;0.98;;;8.30;86.60;;;;;;5136129;27;20034;-73
2023/04/13 08:08:33;;;;;;;1.83;0.80;;;8.40;86.60;;;;;;5154450;27;20066;-73
2023/04/13 08:10:59;;;;;;;1.63;0.90;;;8.50;86.50;;;;;;5135875;27;20071;-72
2023/04/13 08:13:27;;;;;;;1.92;0.75;;;8.60;86.40;;;;;;5154183;27;20042;-72
2023/04/13 08:15:56;;;;;;;1.67;1.05;;;8.70;86.10;;;;;;5154226;27;20478;-73
2023/04/13 08:18:22;;;;;;;2.72;1.15;;;8.80;86.00;;;;;;5154231;27;20054;-73
2023/04/13 08:20:48;;;;;;;2.63;1.20;;;8.80;86.00;;;;;;5135972;27;20041;-73
2023/04/13 08:23:13;;;;;;;2.08;0.90;;;8.90;86.10;;;;;;5135622;27;20043;-73
2023/04/13 08:25:41;;;;;;;2.85;1.17;;;8.80;86.10;;;;;;5135636;27;20042;-72
2023/04/13 08:28:06;;;;;;;2.47;1.10;;;8.90;86.10;;;;;;5154550;27;20035;-72
2023/04/13 08:30:33;;;;;;;3.08;1.30;;;8.90;86.10;;;;;;5135487;27;20103;-71
2023/04/13 08:32:59;;;;;;;2.78;1.30;;;8.90;86.10;;;;;;5154302;27;20050;-71
2023/04/13 08:35:24;;;;;;;2.25;1.10;;;9.00;86.20;;;;;;5135625;27;20398;-72
2023/04/13 08:37:50;;;;;;;2.80;1.20;;;9.00;86.20;;;;;;5135992;27;20095;-72
2023/04/13 08:40:17;;;;;;;3.20;1.00;;;9.00;86.20;;;;;;5135397;27;20114;-71
2023/04/13 08:42:43;;;;;;;1.73;1.02;;;9.10;86.40;;;;;;5154007;27;20039;-72
2023/04/13 08:45:09;;;;;;;3.10;0.98;;;9.00;86.30;;;;;;5153995;27;20554;-74
2023/04/13 08:47:35;;;;;;;2.28;0.82;;;9.10;86.40;;;;;;5118728;27;20039;-73
2023/04/13 08:50:02;;;;;;;2.70;0.90;;;9.10;86.40;;;;;;5154472;27;20087;-73
2023/04/13 08:52:28;;;;;;;1.83;0.90;;;9.10;86.40;;;;;;5154338;27;20122;-72
2023/04/13 08:54:57;;;;;;;3.85;1.00;;;9.10;86.30;;;;;;5154324;27;20035;-73
2023/04/13 08:57:23;;;;;;;3.15;1.20;;;9.20;86.30;;;;;;5154240;27;20039;-75
2023/04/13 08:59:52;;;;;;;2.10;0.90;;;9.20;86.20;;;;;;5153575;27;20035;-74
2023/04/13 09:02:24;;;;;;;0.88;0.57;;;9.20;86.20;;;;;;5115565;27;20054;-74
2023/04/13 09:04:58;;;;;;;2.88;0.88;;;9.20;86.20;;;;;;5136071;27;20043;-74
2023/04/13 09:07:27;;;;;;;2.03;0.80;;;9.40;86.30;;;;;;5153547;27;20061;-73
2023/04/13 09:09:57;;;;;;;2.08;0.95;;;9.30;86.20;;;;;;5154128;27;20046;-74
2023/04/13 09:12:23;;;;;;;2.00;0.93;;;9.30;86.10;;;;;;5153472;27;20513;-73
2023/04/13 09:14:49;;;;;;;3.20;1.20;;;9.30;86.00;;;;;;5135311;27;20050;-73
2023/04/13 09:17:25;;;;;;;3.67;0.80;;;9.40;86.10;;;;;;5153669;27;20055;-73
2023/04/13 09:19:51;;;;;;;2.42;0.80;;;9.60;86.10;;;;;;5155700;27;20126;-74
2023/04/13 09:22:17;;;;;;;2.10;0.70;;;9.60;85.90;;;;;;5138456;27;20046;-74
2023/04/13 09:24:43;;;;;;;1.77;0.73;;;9.70;85.60;;;;;;5104368;27;20035;-74
2023/04/13 09:27:20;;;;;;;2.72;1.10;;;9.80;85.50;;;;;;5138462;27;20055;-74
2023/04/13 09:29:50;;;;;;;2.90;0.88;;;9.70;85.30;;;;;;5157460;27;20064;-74
2023/04/13 09:32:20;;;;;;;5.60;1.10;;;9.70;85.20;;;;;;5156767;27;20038;-74
2023/04/13 09:34:57;;;;;;;3.13;1.05;;;9.80;85.40;;;;;;5138625;27;20042;-75
2023/04/13 09:37:23;;;;;;;2.58;0.90;;;9.90;85.20;;;;;;5121532;27;20042;-73
2023/04/13 09:39:49;;;;;;;3.13;1.02;;;10.00;85.40;;;;;;5121255;27;20393;-74
2023/04/13 09:42:17;;;;;;;2.08;0.93;;;10.20;85.10;;;;;;5138343;27;20045;-74
2023/04/13 09:44:42;;;;;;;1.60;0.68;;;10.30;84.70;;;;;;5121687;27;20038;-73
2023/04/13 09:47:08;;;;;;;1.25;0.50;;;10.40;84.40;;;;;;5103975;27;20049;-74
2023/04/13 09:49:39;;;;;;;2.88;0.95;;;10.50;84.20;;;;;;5121109;27;20043;-73
2023/04/13 09:52:07;;;;;;;2.08;0.88;;;10.60;84.00;;;;;;5137745;27;20128;-74
2023/04/13 09:54:32;;;;;;;1.45;0.60;;;10.80;84.60;;;;;;5121131;27;20099;-74
2023/04/13 09:56:58;;;;;;;2.80;0.90;;;10.90;83.70;;;;;;5105978;27;20394;-74
2023/04/13 09:59:26;;;;;;;2.13;0.80;;;11.10;83.50;;;;;;5156468;27;20117;-74
2023/04/13 10:01:53;;;;;;;3.30;0.80;;;11.20;83.20;;;;;;5156318;27;20450;-73
2023/04/13 10:04:19;;;;;;;3.22;0.80;;;11.20;82.90;;;;;;5156342;27;20035;-73
2023/04/13 10:06:46;;;;;;;2.63;0.68;;;11.10;82.90;;;;;;5156144;27;20043;-72
2023/04/13 10:09:13;;;;;;;1.25;0.70;;;11.20;83.00;;;;;;5138189;27;20043;-74
2023/04/13 10:11:48;;;;;;;3.05;0.90;;;11.30;82.90;;;;;;5156197;27;20508;-72
2023/04/13 10:14:20;;;;;;;1.88;0.90;;;11.30;82.60;;;;;;5156029;27;20165;-71
2023/04/13 10:17:13;;;;;;;2.38;0.98;;;11.20;82.50;;;;;;5155989;27;20035;-71
2023/04/13 10:19:43;;;;;;;3.00;1.17;;;11.20;82.60;;;;;;5156112;27;20174;-72
2023/04/13 10:22:10;;;;;;;5.80;1.33;;;11.10;82.70;;;;;;5156475;27;20077;-70
2023/04/13 10:24:38;;;;;;;4.72;1.20;;;11.10;82.70;;;;;;5156093;27;20063;-71
2023/04/13 10:27:21;;;;;;;4.47;1.10;;;11.20;82.50;;;;;;5156108;27;20553;-70
2023/04/13 10:29:47;;;;;;;4.22;0.95;;;11.20;82.30;;;;;;5155758;27;20035;-71
2023/04/13 10:32:22;;;;;;;2.88;1.00;;;11.10;82.20;;;;;;5155875;27;20035;-71
2023/04/13 10:34:48;;;;;;;6.45;1.33;;;11.00;82.20;;;;;;5137284;27;20054;-72
2023/04/13 10:37:18;;;;;;;1.60;0.80;;;10.90;82.40;;;;;;5155925;27;20035;-73
2023/04/13 10:39:45;;;;;;;3.13;0.80;;;10.70;82.50;;;;;;5137307;27;20043;-73
2023/04/13 10:42:12;;;;;;;2.45;0.90;;;10.40;83.00;;;;;;5155826;27;20046;-72
2023/04/13 10:44:47;;;;;;;2.17;0.90;;;10.30;83.80;;;;;;5156132;27;20057;-72
2023/04/13 10:47:17;;;;;;;1.60;0.75;;;10.20;84.20;;;;;;5137527;27;20035;-71
2023/04/13 10:49:45;;;;;;;2.10;0.90;;;10.10;84.40;;;;;;5119758;27;20099;-71
2023/04/13 10:52:12;;;;;;;1.75;0.77;;;10.10;84.60;;;;;;5120443;27;20536;-71
2023/04/13 10:54:40;;;;;;;1.75;0.75;;;10.10;84.60;;;;;;5137165;27;20095;-71
2023/04/13 10:57:07;;;;;;;2.83;0.75;;;10.20;84.70;;;;;;5155597;27;20042;-71
2023/04/13 10:59:48;;;;;;;2.00;0.60;;;10.40;84.40;;;;;;5136762;27;20057;-72
2023/04/13 11:02:15;;;;;;;4.47;0.90;;;10.50;83.60;;;;;;5155535;27;20099;-73
2023/04/13 11:04:43;;;;;;;3.13;0.90;;;10.60;83.30;;;;;;5136901;27;20062;-73
2023/04/13 11:07:15;;;;;;;1.38;0.70;;;10.40;83.50;;;;;;5136829;27;20051;-72
2023/04/13 11:09:42;;;;;;;1.05;0.70;;;10.20;84.10;;;;;;5155198;27;20047;-73
2023/04/13 11:12:10;;;;;;;1.65;0.50;;;10.20;85.00;;;;;;5136910;27;20042;-72
2023/04/13 11:14:37;;;;;;;3.00;0.88;;;10.30;84.60;;;;;;5155215;27;20110;-72
2023/04/13 11:17:05;;;;;;;3.67;0.98;;;10.50;84.60;;;;;;5155290;27;20039;-73
2023/04/13 11:19:31;;;;;;;3.10;1.00;;;10.70;84.00;;;;;;5155343;27;20039;-72
2023/04/13 11:21:58;;;;;;;3.35;1.15;;;11.00;83.40;;;;;;5155201;27;20050;-74
2023/04/13 11:24:26;;;;;;;3.70;0.80;;;10.90;83.10;;;;;;5136770;27;20129;-73
2023/04/13 11:26:53;;;;;;;2.55;0.70;;;10.80;83.00;;;;;;5154984;27;20478;-73
2023/04/13 11:29:21;;;;;;;2.72;1.02;;;10.90;83.10;;;;;;5155332;27;20039;-73
2023/04/13 11:31:47;;;;;;;1.15;0.80;;;10.90;83.10;;;;;;5155599;27;20057;-72
2023/04/13 11:34:21;;;;;;;2.05;0.63;;;10.90;83.10;;;;;;5154860;27;20051;-73
2023/04/13 11:36:48;;;;;;;1.45;0.80;;;11.10;82.90;;;;;;5136173;27;20122;-72
2023/04/13 11:39:14;;;;;;;4.55;1.15;;;11.20;82.90;;;;;;5102557;27;20047;-73
2023/04/13 11:41:40;;;;;;;3.17;0.93;;;11.40;82.20;;;;;;5118643;27;20490;-73
2023/04/13 11:44:06;;;;;;;3.58;1.15;;;11.50;82.00;;;;;;5154862;27;20039;-74
2023/04/13 11:46:32;;;;;;;1.90;0.82;;;11.50;81.80;;;;;;5154852;27;20443;-72
2023/04/13 11:48:58;;;;;;;1.88;0.88;;;11.70;81.60;;;;;;5154633;27;20489;-73
2023/04/13 11:51:24;;;;;;;3.83;0.93;;;11.70;81.10;;;;;;5154621;27;20133;-74
2023/04/13 11:53:50;;;;;;;1.70;0.80;;;11.80;81.10;;;;;;5119166;27;20038;-72
2023/04/13 11:56:17;;;;;;;2.17;1.02;;;11.80;81.00;;;;;;5136302;27;20039;-73
2023/04/13 11:58:42;;;;;;;1.40;0.90;;;12.00;80.70;;;;;;5136068;27;20062;-72
2023/04/13 12:01:09;;;;;;;3.30;0.98;;;11.80;80.50;;;;;;5154335;27;20489;-73
2023/04/13 12:03:36;;;;;;;3.80;1.30;;;11.90;80.60;;;;;;5154516;27;20088;-73
2023/04/13 12:06:02;;;;;;;1.65;0.90;;;11.90;80.70;;;;;;5154337;27;20067;-73
2023/04/13 12:08:28;;;;;;;2.58;1.02;;;11.90;80.50;;;;;;5154269;27;20039;-72
2023/04/13 12:10:57;;;;;;;1.23;0.60;;;11.90;80.50;;;;;;5154216;27;20490;-73
2023/04/13 12:13:23;;;;;;;3.25;1.00;;;11.80;80.40;;;;;;5154064;27;20035;-72
2023/04/13 12:15:49;;;;;;;1.73;1.00;;;12.00;80.50;;;;;;5154565;27;20042;-74
2023/04/13 12:18:15;;;;;;;4.20;0.88;;;12.20;80.30;;;;;;5154597;27;20039;-73
2023/04/13 12:20:43;;;;;;;2.33;0.80;;;12.20;79.30;;;;;;5135646;27;20394;-73
2023/04/13 12:23:20;;;;;;;3.03;1.10;;;12.20;79.20;;;;;;5136054;27;20047;-73
2023/04/13 12:26:04;;;;;;;1.45;0.70;;;12.30;79.10;;;;;;5152800;27;20558;-74
2023/04/13 12:28:32;;;;;;;3.03;0.90;;;12.50;79.10;;;;;;5152413;27;20038;-75
2023/04/13 12:31:15;;;;;;;3.72;1.13;;;12.60;78.70;;;;;;5154217;27;20074;-73
2023/04/13 12:33:40;;;;;;;3.95;1.17;;;12.60;78.00;;;;;;5154022;27;20051;-72
2023/04/13 12:36:10;;;;;;;2.85;0.90;;;12.60;77.80;;;;;;5135172;27;20054;-73
2023/04/13 12:38:36;;;;;;;1.85;0.80;;;12.60;77.90;;;;;;5153694;27;20035;-73
2023/04/13 12:41:02;;;;;;;2.22;0.70;;;12.50;77.80;;;;;;5153819;27;20046;-74
2023/04/13 12:43:28;;;;;;;2.30;1.00;;;12.40;78.20;;;;;;5153834;27;20050;-73
2023/04/13 12:45:54;;;;;;;5.55;0.95;;;12.30;78.30;;;;;;5135725;27;20096;-73
2023/04/13 12:48:21;;;;;;;1.35;0.70;;;12.30;78.40;;;;;;5118042;27;20050;-73
2023/04/13 12:50:47;;;;;;;1.73;0.60;;;12.40;78.30;;;;;;5153763;27;20046;-73
2023/04/13 12:53:13;;;;;;;1.88;0.65;;;12.40;78.10;;;;;;5100997;27;20079;-73
2023/04/13 12:55:40;;;;;;;2.20;0.80;;;12.40;77.90;;;;;;5138577;27;20042;-72